Time;durP1;ratioP1;P1;durP2;ratioP2;P2;SDS_P1;SDS_P2;PMS_P1;PMS_P2;Temp;Humidity;BMP_temperature;BMP_pressure;BME280_temperature;BME280_humidity;BME280_pressure;Samples;Min_cycle;Max_cycle;Signal;HPM_P1;HPM_P2
2024/03/11 00:01:44;;;;;;;67.82;38.55;;;7.10;99.90;;;;;;5036290;28;20183;-72
2024/03/11 00:04:13;;;;;;;62.25;37.47;;;7.10;99.90;;;;;;5040398;28;20191;-72
2024/03/11 00:06:44;;;;;;;64.32;37.25;;;7.10;99.90;;;;;;5031517;28;20560;-72
2024/03/11 00:09:20;;;;;;;61.85;36.05;;;7.10;99.90;;;;;;5036138;28;20210;-72
2024/03/11 00:11:55;;;;;;;65.80;36.03;;;7.10;99.90;;;;;;5032068;28;20641;-71
2024/03/11 00:14:32;;;;;;;65.10;37.40;;;7.00;99.90;;;;;;5030757;28;20229;-71
2024/03/11 00:16:59;;;;;;;61.03;36.63;;;7.10;99.90;;;;;;5024564;28;20278;-71
2024/03/11 00:19:26;;;;;;;67.53;38.00;;;7.00;99.90;;;;;;5041026;28;20573;-72
2024/03/11 00:21:59;;;;;;;61.10;34.80;;;7.00;99.90;;;;;;5039708;28;20242;-72
2024/03/11 00:24:25;;;;;;;62.53;36.38;;;7.00;99.90;;;;;;5031601;28;20199;-72
2024/03/11 00:26:52;;;;;;;63.60;35.92;;;7.00;99.90;;;;;;5037448;28;20214;-72
2024/03/11 00:29:19;;;;;;;64.95;36.30;;;7.00;99.90;;;;;;5040144;28;20227;-71
2024/03/11 00:31:45;;;;;;;59.60;35.78;;;7.00;99.90;;;;;;5034857;28;20215;-73
2024/03/11 00:34:14;;;;;;;65.47;37.10;;;7.00;99.90;;;;;;5034988;28;20191;-72
2024/03/11 00:36:40;;;;;;;63.60;35.80;;;6.90;99.90;;;;;;5010747;28;20510;-72
2024/03/11 00:39:08;;;;;;;63.28;35.53;;;6.90;99.90;;;;;;5029209;28;20504;-71
2024/03/11 00:41:34;;;;;;;59.05;34.40;;;6.90;99.90;;;;;;5040411;28;20605;-72
2024/03/11 00:44:00;;;;;;;68.72;36.03;;;6.80;99.90;;;;;;5040072;28;20217;-73
2024/03/11 00:46:26;;;;;;;60.92;35.63;;;6.80;99.90;;;;;;5029837;28;20254;-71
2024/03/11 00:48:52;;;;;;;61.63;34.40;;;6.80;99.90;;;;;;5030320;28;20885;-72
2024/03/11 00:51:17;;;;;;;60.67;34.50;;;6.80;99.90;;;;;;5039579;28;20203;-72
2024/03/11 00:53:43;;;;;;;61.85;35.08;;;6.70;99.90;;;;;;5035185;28;20180;-71
2024/03/11 00:56:09;;;;;;;60.92;33.60;;;6.70;99.90;;;;;;5035053;28;20187;-72
2024/03/11 00:58:35;;;;;;;62.13;37.00;;;6.80;99.90;;;;;;5033342;28;20187;-71
2024/03/11 01:01:02;;;;;;;59.15;34.25;;;6.60;99.90;;;;;;5033878;28;20269;-72
2024/03/11 01:03:32;;;;;;;59.72;36.15;;;6.60;99.90;;;;;;5036365;28;20227;-71
2024/03/11 01:05:58;;;;;;;58.58;34.50;;;6.60;99.90;;;;;;5034875;28;20278;-72
2024/03/11 01:08:25;;;;;;;61.30;35.80;;;6.60;99.90;;;;;;5037924;28;20195;-71
2024/03/11 01:10:51;;;;;;;61.72;35.15;;;6.70;99.90;;;;;;5027126;28;20214;-71
2024/03/11 01:13:18;;;;;;;59.38;32.83;;;6.70;99.90;;;;;;5035845;28;20191;-71
2024/03/11 01:15:45;;;;;;;61.95;36.17;;;6.70;99.90;;;;;;5034621;28;20515;-71
2024/03/11 01:18:11;;;;;;;57.22;33.20;;;6.70;99.90;;;;;;5033513;28;20229;-71
2024/03/11 01:20:37;;;;;;;59.00;33.70;;;6.80;99.90;;;;;;5033195;28;20191;-71
2024/03/11 01:23:05;;;;;;;60.03;34.13;;;6.80;99.90;;;;;;5037328;28;20327;-72
2024/03/11 01:25:31;;;;;;;60.58;34.42;;;6.80;99.90;;;;;;5038925;28;20210;-72
2024/03/11 01:27:57;;;;;;;62.75;34.53;;;6.90;99.90;;;;;;5038718;28;20239;-71
2024/03/11 01:30:24;;;;;;;57.72;34.22;;;6.90;99.90;;;;;;5035325;28;20222;-71
2024/03/11 01:32:50;;;;;;;60.15;33.17;;;6.90;99.90;;;;;;5039004;28;20199;-73
2024/03/11 01:35:17;;;;;;;60.70;34.90;;;6.90;99.90;;;;;;5035990;28;20183;-72
2024/03/11 01:37:43;;;;;;;54.72;32.53;;;7.00;99.90;;;;;;5034688;28;20249;-71
2024/03/11 01:40:10;;;;;;;58.33;33.35;;;6.90;99.90;;;;;;5024858;28;20203;-71
2024/03/11 01:42:36;;;;;;;56.53;32.42;;;7.00;99.90;;;;;;5034941;28;20270;-71
2024/03/11 01:45:03;;;;;;;63.67;35.20;;;7.00;99.90;;;;;;5032872;28;20321;-71
2024/03/11 01:47:29;;;;;;;57.72;33.03;;;7.00;99.90;;;;;;5036604;28;20187;-70
2024/03/11 01:49:59;;;;;;;58.58;32.90;;;7.00;99.90;;;;;;5035139;28;20546;-70
2024/03/11 01:52:31;;;;;;;57.92;32.35;;;7.00;99.90;;;;;;5037708;28;20693;-72
2024/03/11 01:54:58;;;;;;;55.63;33.35;;;7.10;99.90;;;;;;5037366;28;20993;-71
2024/03/11 01:57:26;;;;;;;55.60;32.58;;;7.10;99.90;;;;;;5035784;28;20187;-71
2024/03/11 01:59:52;;;;;;;54.90;31.35;;;7.10;99.90;;;;;;5029239;28;20191;-72
2024/03/11 02:02:20;;;;;;;54.72;32.85;;;7.10;99.90;;;;;;5034624;28;20698;-71
2024/03/11 02:04:47;;;;;;;54.90;32.20;;;7.10;99.90;;;;;;5036597;28;20651;-71
2024/03/11 02:07:14;;;;;;;55.28;32.10;;;7.20;99.90;;;;;;5030463;28;20202;-71
2024/03/11 02:09:44;;;;;;;60.65;32.90;;;7.20;99.90;;;;;;5031497;28;20322;-71
2024/03/11 02:12:14;;;;;;;53.55;30.52;;;7.20;99.90;;;;;;5008425;28;20207;-71
2024/03/11 02:14:40;;;;;;;52.83;31.95;;;7.30;99.90;;;;;;5034723;28;20199;-72
2024/03/11 02:17:06;;;;;;;51.88;31.55;;;7.30;99.90;;;;;;5009599;28;20191;-71
2024/03/11 02:19:37;;;;;;;54.90;30.92;;;7.30;99.90;;;;;;5021213;28;20207;-71
2024/03/11 02:22:03;;;;;;;56.13;32.17;;;7.40;99.90;;;;;;5040669;28;20245;-72
2024/03/11 02:24:29;;;;;;;56.65;32.22;;;7.40;99.90;;;;;;5038293;28;20232;-72
2024/03/11 02:26:54;;;;;;;53.20;31.63;;;7.50;99.90;;;;;;5035157;28;20241;-72
2024/03/11 02:29:21;;;;;;;52.35;30.52;;;7.50;99.90;;;;;;5039202;28;20231;-71
2024/03/11 02:31:48;;;;;;;51.85;30.80;;;7.50;99.90;;;;;;5039423;28;20211;-72
2024/03/11 02:34:15;;;;;;;50.15;30.67;;;7.60;99.90;;;;;;5038663;28;20265;-71
2024/03/11 02:36:44;;;;;;;51.80;31.23;;;7.60;99.90;;;;;;5033748;28;20282;-72
2024/03/11 02:39:10;;;;;;;51.65;29.90;;;7.60;99.90;;;;;;5040772;28;20637;-72
2024/03/11 02:41:39;;;;;;;55.40;31.17;;;7.60;99.90;;;;;;5036765;28;20192;-71
2024/03/11 02:44:05;;;;;;;53.45;30.92;;;7.70;99.90;;;;;;5023928;28;20295;-71
2024/03/11 02:46:31;;;;;;;55.25;30.83;;;7.70;99.90;;;;;;5035895;28;20192;-71
2024/03/11 02:48:57;;;;;;;51.88;29.40;;;7.70;99.90;;;;;;5040077;28;20729;-71
2024/03/11 02:51:23;;;;;;;56.63;30.50;;;7.80;99.90;;;;;;5029647;28;20286;-72
2024/03/11 02:53:50;;;;;;;52.78;30.73;;;7.80;99.90;;;;;;5038923;28;20191;-71
2024/03/11 02:56:17;;;;;;;56.97;30.05;;;7.80;99.90;;;;;;5041502;28;20233;-72
2024/03/11 02:58:43;;;;;;;50.05;30.38;;;7.80;99.90;;;;;;5038346;28;20196;-71
2024/03/11 03:01:09;;;;;;;48.88;29.77;;;7.90;99.90;;;;;;5037520;28;20191;-72
2024/03/11 03:03:35;;;;;;;45.65;29.67;;;7.90;99.90;;;;;;5035299;28;20195;-73
2024/03/11 03:06:01;;;;;;;48.88;30.58;;;7.90;99.90;;;;;;5036896;28;20210;-73
2024/03/11 03:08:27;;;;;;;52.45;30.17;;;7.90;99.90;;;;;;5037683;28;20282;-72
2024/03/11 03:10:53;;;;;;;48.58;29.58;;;7.90;99.90;;;;;;5037582;28;20223;-72
2024/03/11 03:13:20;;;;;;;52.05;30.42;;;8.00;99.90;;;;;;5037777;28;20190;-72
2024/03/11 03:15:46;;;;;;;48.95;29.67;;;8.00;99.90;;;;;;4974109;28;20211;-72
2024/03/11 03:18:13;;;;;;;51.85;29.80;;;8.00;99.90;;;;;;5037249;28;20214;-72
2024/03/11 03:20:40;;;;;;;51.13;30.35;;;8.00;99.90;;;;;;5038526;28;20191;-73
2024/03/11 03:23:06;;;;;;;50.25;30.10;;;8.00;99.90;;;;;;5037762;28;20187;-72
2024/03/11 03:25:33;;;;;;;50.85;30.88;;;8.00;99.90;;;;;;5029816;28;20203;-73
2024/03/11 03:28:02;;;;;;;46.22;29.45;;;8.00;99.90;;;;;;5037147;28;20234;-72
2024/03/11 03:30:33;;;;;;;48.10;30.05;;;8.00;99.90;;;;;;5038625;28;20253;-71
2024/03/11 03:33:00;;;;;;;48.63;29.17;;;8.00;99.90;;;;;;5039807;28;20298;-72
2024/03/11 03:35:25;;;;;;;52.03;29.90;;;8.00;99.90;;;;;;5038137;28;20188;-72
2024/03/11 03:37:52;;;;;;;51.30;30.50;;;8.00;99.90;;;;;;5035414;28;20202;-71
2024/03/11 03:40:18;;;;;;;53.00;29.63;;;8.00;99.90;;;;;;5037961;28;20592;-71
2024/03/11 03:42:46;;;;;;;53.25;29.98;;;7.90;99.90;;;;;;5038228;28;20209;-72
2024/03/11 03:45:13;;;;;;;51.20;29.73;;;7.90;99.90;;;;;;5027148;28;21190;-72
2024/03/11 03:47:39;;;;;;;51.22;28.67;;;7.90;99.90;;;;;;5036948;28;20180;-72
2024/03/11 03:50:05;;;;;;;50.15;30.10;;;7.90;99.90;;;;;;5037473;28;20188;-71
2024/03/11 03:52:31;;;;;;;51.10;30.50;;;7.80;99.90;;;;;;5028180;28;20241;-72
2024/03/11 03:54:57;;;;;;;50.83;29.13;;;7.80;99.90;;;;;;5038536;28;20223;-72
2024/03/11 03:57:23;;;;;;;51.13;29.92;;;7.90;99.90;;;;;;5037980;28;20245;-73
2024/03/11 03:59:48;;;;;;;47.90;29.10;;;7.90;99.90;;;;;;5037282;28;20215;-72
2024/03/11 04:02:14;;;;;;;52.60;30.00;;;7.80;99.90;;;;;;5036539;28;20187;-72
2024/03/11 04:04:41;;;;;;;51.90;30.33;;;7.80;99.90;;;;;;5039794;28;20187;-73
2024/03/11 04:07:07;;;;;;;48.22;28.92;;;7.80;99.90;;;;;;5040203;28;20202;-72
2024/03/11 04:09:33;;;;;;;51.85;29.60;;;7.80;99.90;;;;;;5034008;28;20719;-72
2024/03/11 04:11:59;;;;;;;50.03;29.30;;;7.80;99.90;;;;;;5039259;28;20215;-72
2024/03/11 04:14:24;;;;;;;48.17;29.20;;;7.80;99.90;;;;;;5032857;28;20203;-72
2024/03/11 04:16:50;;;;;;;52.20;29.35;;;7.80;99.90;;;;;;5036535;28;20191;-72
2024/03/11 04:19:18;;;;;;;51.15;29.52;;;7.70;99.90;;;;;;5038426;28;20183;-72
2024/03/11 04:21:44;;;;;;;48.95;28.60;;;7.70;99.90;;;;;;5026966;28;20183;-72
2024/03/11 04:24:11;;;;;;;48.00;28.75;;;7.70;99.90;;;;;;5029062;28;20743;-72
2024/03/11 04:26:38;;;;;;;50.50;29.60;;;7.70;99.90;;;;;;5040170;28;20191;-71
2024/03/11 04:29:05;;;;;;;48.25;30.05;;;7.70;99.90;;;;;;5033649;28;20644;-71
2024/03/11 04:31:35;;;;;;;54.20;30.23;;;7.70;99.90;;;;;;5032296;28;20325;-72
2024/03/11 04:34:00;;;;;;;49.55;29.00;;;7.70;99.90;;;;;;5028263;28;20191;-72
2024/03/11 04:36:26;;;;;;;52.10;30.25;;;7.70;99.90;;;;;;5009398;28;20191;-72
2024/03/11 04:38:52;;;;;;;54.30;28.98;;;7.70;99.90;;;;;;5010515;28;20656;-71
2024/03/11 04:41:18;;;;;;;49.10;29.27;;;7.70;99.90;;;;;;5032002;28;20195;-72
2024/03/11 04:43:44;;;;;;;47.92;28.13;;;7.70;99.90;;;;;;5038601;28;20195;-72
2024/03/11 04:46:10;;;;;;;51.58;28.48;;;7.70;99.90;;;;;;5034597;28;20778;-71
2024/03/11 04:48:36;;;;;;;50.80;28.73;;;7.70;99.90;;;;;;5036302;28;20276;-72
2024/03/11 04:51:04;;;;;;;54.63;29.55;;;7.70;99.90;;;;;;5033783;28;20445;-72
2024/03/11 04:53:30;;;;;;;57.20;29.83;;;7.60;99.90;;;;;;5036249;28;20203;-71
2024/03/11 04:55:56;;;;;;;48.03;27.55;;;7.70;99.90;;;;;;5037629;28;20277;-72
2024/03/11 04:58:23;;;;;;;52.35;28.80;;;7.60;99.90;;;;;;5036283;28;20183;-72
2024/03/11 05:00:50;;;;;;;50.95;27.77;;;7.60;99.90;;;;;;5028883;28;20222;-71
2024/03/11 05:03:18;;;;;;;48.00;28.67;;;7.60;99.90;;;;;;5008797;28;20203;-71
2024/03/11 05:05:44;;;;;;;48.05;28.17;;;7.60;99.90;;;;;;5038437;28;20202;-72
2024/03/11 05:08:10;;;;;;;47.40;27.83;;;7.60;99.90;;;;;;5033543;28;20256;-71
2024/03/11 05:10:36;;;;;;;53.00;28.50;;;7.60;99.90;;;;;;5034571;28;20215;-71
2024/03/11 05:13:03;;;;;;;52.92;28.73;;;7.60;99.90;;;;;;5034628;28;20188;-71
2024/03/11 05:15:29;;;;;;;51.53;29.05;;;7.60;99.90;;;;;;5032889;28;21055;-72
2024/03/11 05:17:55;;;;;;;51.20;28.52;;;7.60;99.90;;;;;;5025191;28;20206;-72
2024/03/11 05:20:21;;;;;;;53.58;29.13;;;7.60;99.90;;;;;;4992232;28;20188;-72
2024/03/11 05:22:48;;;;;;;52.17;27.88;;;7.50;99.90;;;;;;5034510;28;20205;-74
2024/03/11 05:25:20;;;;;;;50.58;28.52;;;7.50;99.90;;;;;;5028078;28;20184;-73
2024/03/11 05:27:47;;;;;;;51.38;28.27;;;7.50;99.90;;;;;;5029635;28;20227;-72
2024/03/11 05:30:13;;;;;;;51.85;28.55;;;7.50;99.90;;;;;;5042726;28;20195;-73
2024/03/11 05:32:40;;;;;;;45.85;27.23;;;7.50;99.90;;;;;;5029827;28;20271;-73
2024/03/11 05:35:06;;;;;;;54.70;28.23;;;7.50;99.90;;;;;;5036943;28;20293;-73
2024/03/11 05:37:33;;;;;;;51.38;27.60;;;7.40;99.90;;;;;;5032713;28;20246;-73
2024/03/11 05:39:59;;;;;;;54.53;28.35;;;7.40;99.90;;;;;;5036043;28;20606;-73
2024/03/11 05:42:25;;;;;;;50.22;28.40;;;7.40;99.90;;;;;;5035981;28;20199;-73
2024/03/11 05:44:52;;;;;;;54.53;28.48;;;7.40;99.90;;;;;;5008661;28;20202;-74
2024/03/11 05:47:17;;;;;;;50.10;28.98;;;7.40;99.90;;;;;;5008995;28;20187;-72
2024/03/11 05:49:44;;;;;;;56.38;28.85;;;7.40;99.90;;;;;;5032379;28;20734;-74
2024/03/11 05:52:10;;;;;;;55.95;30.60;;;7.40;99.90;;;;;;5025937;28;20214;-74
2024/03/11 05:54:38;;;;;;;50.80;29.20;;;7.40;99.90;;;;;;5029241;28;20209;-74
2024/03/11 05:57:05;;;;;;;54.65;28.85;;;7.40;99.90;;;;;;5037131;28;20639;-72
2024/03/11 05:59:31;;;;;;;49.88;27.70;;;7.40;99.90;;;;;;5028382;28;20184;-71
2024/03/11 06:01:58;;;;;;;57.20;29.08;;;7.40;99.90;;;;;;5036987;28;20195;-71
2024/03/11 06:04:27;;;;;;;49.83;27.67;;;7.40;99.90;;;;;;5033210;28;20195;-71
2024/03/11 06:06:54;;;;;;;50.33;27.95;;;7.40;99.90;;;;;;5036605;28;20199;-71
2024/03/11 06:09:20;;;;;;;47.38;28.52;;;7.40;99.90;;;;;;5039973;28;20187;-71
2024/03/11 06:11:48;;;;;;;46.42;27.52;;;7.40;99.90;;;;;;5033674;28;20199;-74
2024/03/11 06:14:14;;;;;;;49.88;26.95;;;7.40;99.90;;;;;;5029238;28;20252;-80
2024/03/11 06:16:44;;;;;;;52.63;27.75;;;7.40;99.90;;;;;;5038897;28;20328;-72
2024/03/11 06:19:12;;;;;;;48.45;25.73;;;7.40;99.90;;;;;;5034293;28;20188;-73
2024/03/11 06:21:38;;;;;;;49.13;25.75;;;7.40;99.90;;;;;;5038971;28;20574;-70
2024/03/11 06:24:05;;;;;;;48.28;27.27;;;7.40;99.90;;;;;;5037859;28;20286;-70
2024/03/11 06:26:34;;;;;;;46.90;26.42;;;7.30;99.90;;;;;;5041348;28;20759;-72
2024/03/11 06:29:01;;;;;;;46.60;26.08;;;7.30;99.90;;;;;;5037577;28;20219;-72
2024/03/11 06:31:28;;;;;;;51.08;27.05;;;7.40;99.90;;;;;;5035575;28;20207;-77
2024/03/11 06:33:55;;;;;;;45.72;25.73;;;7.30;99.90;;;;;;5030332;28;20681;-73
2024/03/11 06:36:22;;;;;;;51.05;27.42;;;7.30;99.90;;;;;;5022138;28;20651;-73
2024/03/11 06:38:48;;;;;;;48.28;26.13;;;7.30;99.90;;;;;;5039247;28;20187;-73
2024/03/11 06:41:18;;;;;;;48.55;26.00;;;7.40;99.90;;;;;;5038870;28;20199;-71
2024/03/11 06:43:47;;;;;;;49.28;25.40;;;7.40;99.90;;;;;;5037540;28;20187;-78
2024/03/11 06:46:15;;;;;;;48.55;26.55;;;7.40;99.90;;;;;;5036035;28;20656;-73
2024/03/11 06:48:41;;;;;;;50.28;26.92;;;7.40;99.90;;;;;;5037892;28;20712;-73
2024/03/11 06:51:11;;;;;;;45.70;26.02;;;7.40;99.90;;;;;;5039218;28;20212;-72
2024/03/11 06:53:37;;;;;;;48.90;26.05;;;7.40;99.90;;;;;;5024292;28;20200;-73
2024/03/11 06:56:06;;;;;;;45.25;25.65;;;7.50;99.90;;;;;;5035877;28;20266;-73
2024/03/11 06:58:33;;;;;;;48.53;26.50;;;7.50;99.90;;;;;;5018539;28;20180;-76
2024/03/11 07:00:59;;;;;;;50.10;26.65;;;7.50;99.90;;;;;;5032717;28;20199;-73
2024/03/11 07:03:29;;;;;;;46.95;25.48;;;7.60;99.90;;;;;;5033495;28;20556;-73
2024/03/11 07:05:59;;;;;;;42.33;25.55;;;7.60;99.90;;;;;;5027742;28;20191;-73
2024/03/11 07:08:28;;;;;;;45.63;25.00;;;7.70;99.90;;;;;;5036936;28;20191;-76
2024/03/11 07:10:55;;;;;;;45.45;24.70;;;7.70;99.90;;;;;;5035413;28;20714;-73
2024/03/11 07:13:21;;;;;;;53.47;26.73;;;7.70;99.90;;;;;;5035420;28;20245;-76
2024/03/11 07:15:47;;;;;;;45.30;25.15;;;7.70;99.90;;;;;;5036323;28;20191;-74
2024/03/11 07:18:16;;;;;;;43.83;24.35;;;7.70;99.90;;;;;;5029142;28;20245;-73
2024/03/11 07:20:43;;;;;;;46.75;24.52;;;7.80;99.90;;;;;;5009189;28;20195;-71
2024/03/11 07:23:10;;;;;;;43.47;23.95;;;7.80;99.90;;;;;;5032340;28;20206;-73
2024/03/11 07:25:36;;;;;;;40.65;23.58;;;7.80;99.90;;;;;;5009244;28;20212;-73
2024/03/11 07:28:04;;;;;;;46.28;24.25;;;7.80;99.90;;;;;;5038187;28;20238;-71
2024/03/11 07:30:30;;;;;;;44.30;22.88;;;7.80;99.90;;;;;;5037240;28;20248;-72
2024/03/11 07:33:14;;;;;;;41.45;23.38;;;7.90;99.90;;;;;;5033938;28;20199;-73
2024/03/11 07:35:44;;;;;;;42.38;23.52;;;7.90;99.90;;;;;;5037122;28;20657;-73
2024/03/11 07:38:11;;;;;;;46.65;22.95;;;7.90;99.90;;;;;;5036207;28;20701;-75
2024/03/11 07:40:38;;;;;;;44.50;23.85;;;8.00;99.90;;;;;;5040664;28;20210;-72
2024/03/11 07:43:08;;;;;;;43.88;23.83;;;8.00;99.90;;;;;;5028897;28;20188;-73
2024/03/11 07:45:34;;;;;;;41.63;23.13;;;8.00;99.90;;;;;;5011307;28;20645;-72
2024/03/11 07:48:01;;;;;;;42.70;23.85;;;8.10;99.90;;;;;;5019523;28;20226;-74
2024/03/11 07:50:27;;;;;;;45.45;24.52;;;8.10;99.90;;;;;;5036019;28;20187;-73
2024/03/11 07:52:56;;;;;;;43.45;23.65;;;8.10;99.90;;;;;;5035623;28;20171;-73
2024/03/11 07:55:24;;;;;;;42.95;22.70;;;8.10;99.90;;;;;;5037633;28;20195;-72
2024/03/11 07:57:53;;;;;;;41.63;22.65;;;8.10;99.90;;;;;;5007197;28;20183;-73
2024/03/11 08:00:20;;;;;;;41.97;23.17;;;8.20;99.90;;;;;;5035211;28;20194;-72
2024/03/11 08:02:50;;;;;;;39.70;22.92;;;8.20;99.90;;;;;;5037196;28;20183;-74
2024/03/11 08:05:17;;;;;;;41.30;22.48;;;8.20;99.90;;;;;;5035751;28;20266;-72
2024/03/11 08:07:47;;;;;;;47.97;23.92;;;8.20;99.90;;;;;;5039113;28;20199;-73
2024/03/11 08:10:14;;;;;;;40.28;22.90;;;8.30;99.90;;;;;;5036458;28;20192;-72
2024/03/11 08:12:42;;;;;;;37.58;21.65;;;8.30;99.90;;;;;;5035275;28;20215;-73
2024/03/11 08:15:14;;;;;;;40.67;22.75;;;8.30;99.90;;;;;;5029512;28;20199;-71
2024/03/11 08:17:44;;;;;;;44.75;23.27;;;8.30;99.90;;;;;;5027944;28;20560;-71
2024/03/11 08:20:16;;;;;;;38.22;21.15;;;8.40;99.90;;;;;;5035022;28;20262;-72
2024/03/11 08:22:49;;;;;;;43.20;22.35;;;8.40;99.90;;;;;;5038255;28;20863;-72
2024/03/11 08:25:16;;;;;;;37.88;21.80;;;8.40;99.90;;;;;;5034317;28;20187;-73
2024/03/11 08:27:42;;;;;;;45.25;23.55;;;8.50;99.90;;;;;;5034600;28;20239;-74
2024/03/11 08:30:09;;;;;;;45.20;22.40;;;8.40;99.90;;;;;;5037024;28;20354;-74
2024/03/11 08:32:36;;;;;;;39.30;23.00;;;8.50;99.90;;;;;;5032795;28;21288;-74
2024/03/11 08:35:03;;;;;;;37.88;22.85;;;8.60;99.90;;;;;;5030482;28;20184;-74
2024/03/11 08:37:29;;;;;;;37.53;22.17;;;8.70;99.90;;;;;;5029472;28;20286;-73
2024/03/11 08:39:58;;;;;;;40.70;22.00;;;8.70;99.90;;;;;;5037666;28;20671;-72
2024/03/11 08:42:26;;;;;;;41.45;22.58;;;8.80;99.90;;;;;;5033721;28;20247;-74
2024/03/11 08:44:52;;;;;;;39.83;22.30;;;8.80;99.90;;;;;;5033016;28;20200;-72
2024/03/11 08:47:18;;;;;;;39.60;22.83;;;8.90;99.90;;;;;;5030975;28;20214;-74
2024/03/11 08:49:45;;;;;;;42.55;23.65;;;8.90;99.90;;;;;;5030822;28;20236;-75
2024/03/11 08:52:13;;;;;;;39.28;22.30;;;8.90;99.90;;;;;;5034469;28;20268;-72
2024/03/11 08:54:40;;;;;;;42.70;22.60;;;9.00;99.90;;;;;;5034325;28;20225;-72
2024/03/11 08:57:16;;;;;;;39.33;22.42;;;9.00;99.90;;;;;;5026949;28;20218;-73
2024/03/11 08:59:42;;;;;;;43.38;22.52;;;9.10;99.90;;;;;;5026187;28;20706;-74
2024/03/11 09:02:09;;;;;;;45.60;23.10;;;9.10;99.90;;;;;;5031788;28;20180;-76
2024/03/11 09:04:38;;;;;;;38.85;22.58;;;9.10;99.90;;;;;;5034256;28;20195;-75
2024/03/11 09:07:04;;;;;;;42.75;22.45;;;9.10;99.90;;;;;;5034521;28;20188;-75
2024/03/11 09:09:30;;;;;;;38.20;23.17;;;9.00;99.90;;;;;;5029870;28;20534;-74
2024/03/11 09:12:00;;;;;;;35.30;22.55;;;9.10;99.90;;;;;;5035949;28;20694;-74
2024/03/11 09:14:31;;;;;;;39.53;23.33;;;9.10;99.90;;;;;;5010539;28;20183;-75
2024/03/11 09:16:58;;;;;;;39.78;23.58;;;9.20;99.90;;;;;;5031599;28;20532;-75
2024/03/11 09:19:25;;;;;;;37.53;22.13;;;9.10;99.90;;;;;;5031754;28;20199;-72
2024/03/11 09:21:53;;;;;;;39.60;22.98;;;9.20;99.90;;;;;;5034078;28;20621;-73
2024/03/11 09:24:22;;;;;;;36.65;23.05;;;9.20;99.90;;;;;;5028525;28;20196;-75
2024/03/11 09:26:51;;;;;;;38.25;22.60;;;9.10;99.90;;;;;;5028854;28;20801;-74
2024/03/11 09:29:18;;;;;;;39.80;22.17;;;9.20;99.90;;;;;;5034704;28;20235;-74
2024/03/11 09:31:46;;;;;;;38.50;21.90;;;9.20;99.90;;;;;;5032422;28;20314;-74
2024/03/11 09:34:12;;;;;;;39.38;23.20;;;9.20;99.90;;;;;;5032154;28;20285;-74
2024/03/11 09:36:39;;;;;;;39.92;23.00;;;9.30;99.90;;;;;;5029093;28;20261;-73
2024/03/11 09:39:06;;;;;;;37.15;22.55;;;9.30;99.90;;;;;;5024174;28;20191;-73
2024/03/11 09:41:54;;;;;;;38.30;23.08;;;9.30;99.90;;;;;;5035415;28;20217;-73
2024/03/11 09:44:23;;;;;;;41.13;23.17;;;9.30;99.90;;;;;;5035987;28;20686;-73
2024/03/11 09:46:51;;;;;;;45.80;23.23;;;9.30;99.90;;;;;;5037134;28;20243;-74
2024/03/11 09:49:19;;;;;;;39.08;22.88;;;9.30;99.90;;;;;;5034516;28;20589;-74
2024/03/11 09:51:49;;;;;;;40.63;23.58;;;9.20;99.90;;;;;;5031837;28;21299;-73
2024/03/11 09:54:19;;;;;;;41.50;23.58;;;9.20;99.90;;;;;;5021688;28;20192;-74
2024/03/11 09:56:53;;;;;;;41.67;23.75;;;9.20;99.90;;;;;;5032028;28;20278;-72
2024/03/11 09:59:24;;;;;;;44.80;24.63;;;9.30;99.90;;;;;;5029489;28;20187;-72
2024/03/11 10:01:54;;;;;;;39.70;23.35;;;9.30;99.90;;;;;;5032917;28;20195;-74
2024/03/11 10:04:26;;;;;;;39.75;23.50;;;9.30;99.90;;;;;;5016242;28;20200;-73
2024/03/11 10:07:08;;;;;;;38.95;23.38;;;9.30;99.90;;;;;;5031037;28;20274;-73
2024/03/11 10:09:44;;;;;;;38.63;23.08;;;9.40;99.90;;;;;;5034018;28;20191;-73
2024/03/11 10:12:12;;;;;;;36.25;22.67;;;9.30;99.90;;;;;;5034997;28;20237;-74
2024/03/11 10:14:39;;;;;;;39.83;22.50;;;9.30;99.90;;;;;;5030422;28;20199;-73
2024/03/11 10:17:24;;;;;;;40.22;23.13;;;9.40;99.90;;;;;;4988632;28;20284;-75
2024/03/11 10:19:56;;;;;;;39.88;22.92;;;9.50;99.90;;;;;;5032192;28;20199;-73
2024/03/11 10:22:33;;;;;;;46.25;23.98;;;9.60;99.90;;;;;;5030435;28;20234;-73
2024/03/11 10:25:02;;;;;;;38.15;23.80;;;9.70;99.90;;;;;;5032848;28;20198;-75
2024/03/11 10:27:33;;;;;;;40.58;23.20;;;9.80;99.90;;;;;;5033990;28;20228;-72
2024/03/11 10:30:21;;;;;;;35.95;22.00;;;9.90;99.90;;;;;;5027417;28;20248;-75
2024/03/11 10:32:57;;;;;;;41.15;22.80;;;10.00;99.90;;;;;;5008457;28;20620;-73
2024/03/11 10:35:27;;;;;;;40.08;23.23;;;10.10;99.90;;;;;;5031466;28;20199;-73
2024/03/11 10:38:07;;;;;;;36.35;21.98;;;10.20;99.90;;;;;;5034440;28;20180;-74
2024/03/11 10:40:32;;;;;;;38.00;23.05;;;10.20;99.90;;;;;;5033462;28;20229;-72
2024/03/11 10:43:19;;;;;;;36.72;22.83;;;10.30;99.90;;;;;;5033836;28;20219;-73
2024/03/11 10:45:47;;;;;;;35.85;22.42;;;10.30;99.90;;;;;;5034872;28;20298;-72
2024/03/11 10:48:15;;;;;;;35.05;22.25;;;10.40;99.90;;;;;;5034634;28;20191;-73
2024/03/11 10:50:41;;;;;;;45.60;22.20;;;10.40;99.90;;;;;;5034888;28;20191;-75
2024/03/11 10:53:18;;;;;;;38.70;23.58;;;10.40;99.90;;;;;;5032898;28;20195;-72
2024/03/11 10:55:49;;;;;;;36.35;22.42;;;10.40;99.90;;;;;;5011384;28;20193;-73
2024/03/11 10:58:17;;;;;;;38.55;22.52;;;10.30;99.90;;;;;;5027062;28;20223;-74
2024/03/11 11:00:44;;;;;;;43.10;23.10;;;10.30;99.90;;;;;;5034041;28;20175;-72
2024/03/11 11:03:13;;;;;;;36.95;22.42;;;10.30;99.90;;;;;;5031338;28;20217;-72
2024/03/11 11:05:50;;;;;;;39.03;22.52;;;10.20;99.90;;;;;;5039472;28;20199;-72
2024/03/11 11:08:22;;;;;;;36.33;22.33;;;10.30;99.90;;;;;;5033717;28;20544;-73
2024/03/11 11:10:51;;;;;;;40.40;22.88;;;10.40;99.90;;;;;;5039846;28;20218;-72
2024/03/11 11:13:22;;;;;;;39.35;23.15;;;10.40;99.90;;;;;;5033580;28;20192;-73
2024/03/11 11:15:48;;;;;;;34.28;22.20;;;10.50;99.90;;;;;;5033584;28;20213;-73
2024/03/11 11:18:16;;;;;;;36.78;22.73;;;10.50;99.90;;;;;;5036431;28;20245;-73
2024/03/11 11:20:47;;;;;;;34.00;21.65;;;10.60;99.90;;;;;;5034929;28;20188;-71
2024/03/11 11:23:27;;;;;;;34.75;21.52;;;10.70;99.90;;;;;;5036295;28;20270;-73
2024/03/11 11:25:57;;;;;;;37.88;22.45;;;10.80;99.90;;;;;;5034582;28;20305;-72
2024/03/11 11:28:28;;;;;;;39.92;22.27;;;10.80;99.90;;;;;;5036413;28;20766;-72
2024/03/11 11:31:25;;;;;;;34.40;22.25;;;10.90;99.90;;;;;;5010670;28;20215;-73
2024/03/11 11:33:56;;;;;;;36.05;22.15;;;10.90;99.90;;;;;;5036201;28;20198;-73
2024/03/11 11:36:36;;;;;;;35.42;21.80;;;11.00;99.90;;;;;;5031190;28;20565;-75
2024/03/11 11:39:17;;;;;;;42.53;21.95;;;11.00;99.90;;;;;;5035076;28;21103;-72
2024/03/11 11:41:45;;;;;;;33.78;21.55;;;11.10;99.90;;;;;;5026390;28;20306;-72
2024/03/11 11:44:31;;;;;;;37.58;21.88;;;11.20;99.90;;;;;;5028668;28;20196;-74
2024/03/11 11:47:16;;;;;;;36.08;21.52;;;11.40;99.90;;;;;;5025276;28;20299;-73
2024/03/11 11:49:45;;;;;;;34.72;21.75;;;11.40;99.90;;;;;;5037249;28;20202;-73
2024/03/11 11:52:13;;;;;;;33.75;21.08;;;11.50;99.90;;;;;;5031598;28;20220;-72
2024/03/11 11:54:40;;;;;;;39.20;21.80;;;11.40;99.90;;;;;;5027318;28;20275;-73
2024/03/11 11:57:11;;;;;;;38.05;22.15;;;11.40;99.90;;;;;;5034023;28;20192;-73
2024/03/11 11:59:40;;;;;;;35.33;21.80;;;11.40;99.90;;;;;;5034799;28;20272;-72
2024/03/11 12:02:35;;;;;;;38.75;21.48;;;11.40;99.90;;;;;;5038769;28;20195;-72
2024/03/11 12:05:05;;;;;;;34.30;20.85;;;11.40;99.90;;;;;;5012455;28;20207;-72
2024/03/11 12:07:37;;;;;;;34.40;21.45;;;11.40;99.90;;;;;;5038430;28;21415;-72
2024/03/11 12:10:05;;;;;;;35.97;21.83;;;11.40;99.90;;;;;;5026465;28;20196;-73
2024/03/11 12:12:43;;;;;;;36.90;22.55;;;11.40;99.90;;;;;;5011672;28;20214;-75
2024/03/11 12:15:16;;;;;;;36.60;21.88;;;11.50;99.90;;;;;;5034901;28;20187;-73
2024/03/11 12:17:53;;;;;;;36.30;22.00;;;11.50;99.90;;;;;;5035032;28;20195;-73
2024/03/11 12:20:25;;;;;;;36.28;21.48;;;11.60;99.90;;;;;;5035277;28;20591;-73
2024/03/11 12:23:03;;;;;;;32.60;22.05;;;11.50;99.90;;;;;;5033877;28;20200;-73
2024/03/11 12:25:33;;;;;;;37.55;22.48;;;11.50;99.90;;;;;;5029321;28;21171;-74
2024/03/11 12:28:07;;;;;;;33.95;21.98;;;11.50;99.90;;;;;;5034893;28;20238;-75
2024/03/11 12:30:39;;;;;;;35.55;21.63;;;11.50;99.90;;;;;;5036468;28;20222;-74
2024/03/11 12:33:05;;;;;;;35.42;22.50;;;11.50;99.90;;;;;;5034291;28;20197;-73
2024/03/11 12:35:33;;;;;;;35.25;21.60;;;11.50;99.90;;;;;;5034324;28;20577;-73
2024/03/11 12:38:01;;;;;;;44.40;26.83;;;11.50;99.90;;;;;;5032537;28;21697;-73
2024/03/11 12:40:29;;;;;;;35.95;21.35;;;11.60;99.90;;;;;;5034977;28;20562;-73
2024/03/11 12:42:56;;;;;;;33.72;21.35;;;11.60;99.90;;;;;;5032203;28;20206;-74